Avondale, Colorado
Current Conditions -  °F | °C
As of 3:53 PM on Saturday 25 Oct 2014 (Local Time) from KPUB Reporting Station
Clear Clear  
Wind Chill: 83°   Ceiling: Unl
Heat Index: 83°   Visibility: 10mi
Dew Point: 22°   Wind: 6mph
Humidity: 11%   Direction: 130°SE
Pressure: 30.06"   Gusts: NA
Location:  38.24°N, 104.35°W
Report Text: KPUB 252153Z AUTO 13005KT 10SM CLR 28/M06 A3006 RMK AO2 SLP127 T02831056
Loading
Personal Weather Stations






























Interactive Weather Map
Tropical Storm Tracking
New forecast layout! Learn more

10-Day Weather Forecast

Advertisements
Track Severe Weather on mobile